createdAt,value
2023-01-18T00:01:12.460Z,94098.00
2023-01-18T00:03:39.980Z,94095.00
2023-01-18T00:06:10.007Z,94097.00
2023-01-18T00:08:38.799Z,94102.00
2023-01-18T00:11:11.072Z,94107.00
2023-01-18T00:13:38.638Z,94115.00
2023-01-18T00:16:15.248Z,94106.00
2023-01-18T00:18:42.838Z,94107.00
2023-01-18T00:21:11.939Z,94102.00
2023-01-18T00:23:38.968Z,94106.00
2023-01-18T00:26:09.653Z,94101.00
2023-01-18T00:28:37.957Z,94100.00
2023-01-18T00:31:18.325Z,94104.00
2023-01-18T00:33:47.326Z,94108.00
2023-01-18T00:36:15.377Z,94101.00
2023-01-18T00:38:42.381Z,94089.00
2023-01-18T00:41:09.199Z,94105.00
2023-01-18T00:43:38.674Z,94099.00
2023-01-18T00:46:11.547Z,94107.00
2023-01-18T00:48:39.690Z,94104.00
2023-01-18T00:51:09.749Z,94106.00
2023-01-18T00:53:38.148Z,94108.00
2023-01-18T00:56:07.744Z,94109.00
2023-01-18T00:58:35.080Z,94102.00
2023-01-18T01:01:01.955Z,94097.00
2023-01-18T01:03:28.841Z,94105.00
2023-01-18T01:06:15.541Z,94091.00
2023-01-18T01:08:49.947Z,94094.00
2023-01-18T01:11:16.775Z,94105.00
2023-01-18T01:14:01.877Z,94103.00
2023-01-18T01:16:47.363Z,94098.00
2023-01-18T01:19:32.518Z,94102.00
2023-01-18T01:22:17.863Z,94097.00
2023-01-18T01:25:03.065Z,94099.00
2023-01-18T01:27:29.853Z,94092.00
2023-01-18T01:29:56.621Z,94101.00
2023-01-18T01:32:23.470Z,94102.00
2023-01-18T01:34:50.229Z,94099.00
2023-01-18T01:37:17.013Z,94091.00
2023-01-18T01:39:43.860Z,94095.00
2023-01-18T01:42:12.003Z,94094.00
2023-01-18T01:44:52.051Z,94100.00
2023-01-18T01:47:31.330Z,94110.00
2023-01-18T01:50:08.873Z,94098.00
2023-01-18T01:52:38.307Z,94100.00
2023-01-18T01:55:28.406Z,94102.00
2023-01-18T01:58:18.683Z,94099.00
2023-01-18T02:00:45.964Z,94099.00
2023-01-18T02:03:19.109Z,94098.00
2023-01-18T02:05:50.927Z,94090.00
2023-01-18T02:08:24.914Z,94095.00
2023-01-18T02:10:52.688Z,94084.00
2023-01-18T02:13:23.037Z,94093.00
2023-01-18T02:16:22.123Z,94103.00
2023-01-18T02:19:04.952Z,94109.00
2023-01-18T02:21:44.247Z,94105.00
2023-01-18T02:25:06.965Z,94111.00
2023-01-18T02:28:16.819Z,94106.00
2023-01-18T02:30:54.901Z,94108.00
2023-01-18T02:33:40.793Z,94109.00
2023-01-18T02:36:07.613Z,94110.00
2023-01-18T02:38:46.280Z,94115.00
2023-01-18T02:41:45.763Z,94119.00
2023-01-18T02:44:34.622Z,94130.00
2023-01-18T02:47:03.010Z,94123.00
2023-01-18T02:49:32.141Z,94125.00
2023-01-18T02:52:04.743Z,94118.00
2023-01-18T02:54:36.477Z,94120.00
2023-01-18T02:57:09.468Z,94120.00
2023-01-18T02:59:41.375Z,94130.00
2023-01-18T03:02:19.471Z,94124.00
2023-01-18T03:04:55.707Z,94130.00
2023-01-18T03:07:55.660Z,94124.00
2023-01-18T03:10:28.178Z,94120.00
2023-01-18T03:13:04.002Z,94130.00
2023-01-18T03:15:50.575Z,94122.00
2023-01-18T03:19:00.005Z,94123.00
2023-01-18T03:21:53.194Z,94119.00
2023-01-18T03:24:21.229Z,94124.00
2023-01-18T03:26:53.198Z,94130.00
2023-01-18T03:29:39.405Z,94128.00
2023-01-18T03:32:37.171Z,94121.00
2023-01-18T03:35:10.605Z,94127.00
2023-01-18T03:37:41.718Z,94122.00
2023-01-18T03:40:18.260Z,94124.00
2023-01-18T03:42:50.496Z,94119.00
2023-01-18T03:45:23.621Z,94125.00
2023-01-18T03:47:50.971Z,94122.00
2023-01-18T03:50:18.278Z,94117.00
2023-01-18T03:52:49.305Z,94120.00
2023-01-18T03:55:23.608Z,94128.00
2023-01-18T03:58:03.336Z,94124.00
2023-01-18T04:00:31.477Z,94133.00
2023-01-18T04:02:59.087Z,94127.00
2023-01-18T04:05:26.332Z,94121.00
2023-01-18T04:07:53.091Z,94130.00
2023-01-18T04:10:20.137Z,94126.00
2023-01-18T04:12:47.010Z,94129.00
2023-01-18T04:15:13.919Z,94131.00
2023-01-18T04:17:40.779Z,94130.00
2023-01-18T04:20:08.710Z,94125.00
2023-01-18T04:22:35.527Z,94143.00
2023-01-18T04:25:02.474Z,94133.00
2023-01-18T04:27:29.568Z,94136.00
2023-01-18T04:29:58.429Z,94150.00
2023-01-18T04:32:25.204Z,94144.00
2023-01-18T04:34:51.995Z,94148.00
2023-01-18T04:37:18.764Z,94145.00
2023-01-18T04:39:47.559Z,94153.00
2023-01-18T04:42:14.379Z,94164.00
2023-01-18T04:44:41.165Z,94159.00
2023-01-18T04:47:07.972Z,94164.00
2023-01-18T04:49:34.734Z,94170.00
2023-01-18T04:52:01.566Z,94170.00
2023-01-18T04:54:28.509Z,94176.00
2023-01-18T04:56:55.314Z,94184.00
2023-01-18T04:59:22.129Z,94198.00
2023-01-18T05:01:49.124Z,94200.00
2023-01-18T05:04:15.935Z,94213.00
2023-01-18T05:06:42.814Z,94212.00
2023-01-18T05:09:11.747Z,94212.00
2023-01-18T05:11:38.560Z,94212.00
2023-01-18T05:14:05.333Z,94226.00
2023-01-18T05:16:32.176Z,94231.00
2023-01-18T05:18:59.110Z,94232.00
2023-01-18T05:21:26.123Z,94236.00
2023-01-18T05:23:54.700Z,94243.00
2023-01-18T05:26:24.260Z,94234.00
2023-01-18T05:28:56.362Z,94243.00
2023-01-18T05:31:23.257Z,94243.00
2023-01-18T05:33:50.125Z,94237.00
2023-01-18T05:36:17.528Z,94234.00
2023-01-18T05:38:44.322Z,94247.00
2023-01-18T05:41:11.155Z,94238.00
2023-01-18T05:43:38.410Z,94241.00
2023-01-18T05:46:05.915Z,94242.00
2023-01-18T05:48:33.080Z,94250.00
2023-01-18T05:51:00.180Z,94243.00
2023-01-18T05:53:27.043Z,94254.00
2023-01-18T05:56:01.618Z,94258.00
2023-01-18T05:58:29.407Z,94253.00
2023-01-18T06:00:56.694Z,94261.00
2023-01-18T06:03:25.264Z,94233.00
2023-01-18T06:05:53.179Z,94243.00
2023-01-18T06:08:21.447Z,94247.00
2023-01-18T06:10:55.905Z,94262.00
2023-01-18T06:13:24.832Z,94267.00
2023-01-18T06:15:54.804Z,94256.00
2023-01-18T06:18:23.369Z,94259.00
2023-01-18T06:20:53.732Z,94258.00
2023-01-18T06:23:21.213Z,94271.00
2023-01-18T06:25:48.093Z,94274.00
2023-01-18T06:28:15.360Z,94293.00
2023-01-18T06:30:42.957Z,94286.00
2023-01-18T06:33:10.434Z,94304.00
2023-01-18T06:35:38.366Z,94309.00
2023-01-18T06:38:06.136Z,94308.00
2023-01-18T06:40:32.994Z,94312.00
2023-01-18T06:43:01.471Z,94321.00
2023-01-18T06:45:29.911Z,94330.00
2023-01-18T06:47:57.334Z,94328.00
2023-01-18T06:50:25.736Z,94327.00
2023-01-18T06:52:56.058Z,94333.00
2023-01-18T06:55:23.116Z,94331.00
2023-01-18T06:57:50.043Z,94341.00
2023-01-18T07:00:19.428Z,94343.00
2023-01-18T07:02:46.911Z,94338.00
2023-01-18T07:05:13.682Z,94340.00
2023-01-18T07:07:41.169Z,94324.00
2023-01-18T07:10:11.098Z,94326.00
2023-01-18T07:12:39.025Z,94334.00
2023-01-18T07:15:20.762Z,94343.00
2023-01-18T07:17:51.084Z,94345.00
2023-01-18T07:20:19.596Z,94355.00
2023-01-18T07:22:52.677Z,94357.00
2023-01-18T07:25:21.548Z,94347.00
2023-01-18T07:27:49.532Z,94350.00
2023-01-18T07:30:18.460Z,94352.00
2023-01-18T07:32:50.082Z,94355.00
2023-01-18T07:35:19.968Z,94354.00
2023-01-18T07:37:53.408Z,94353.00
2023-01-18T07:40:21.617Z,94351.00
2023-01-18T07:42:50.062Z,94356.00
2023-01-18T07:45:17.844Z,94355.00
2023-01-18T07:47:47.893Z,94357.00
2023-01-18T07:50:16.822Z,94363.00
2023-01-18T07:52:44.728Z,94358.00
2023-01-18T07:55:12.407Z,94358.00
2023-01-18T07:57:40.095Z,94368.00
2023-01-18T08:00:09.070Z,94372.00
2023-01-18T08:02:36.429Z,94377.00
2023-01-18T08:05:05.279Z,94376.00
2023-01-18T08:07:35.261Z,94383.00
2023-01-18T08:10:03.090Z,94389.00
2023-01-18T08:12:30.080Z,94379.00
2023-01-18T08:14:57.010Z,94380.00
2023-01-18T08:17:24.213Z,94386.00
2023-01-18T08:19:52.374Z,94391.00
2023-01-18T08:22:20.771Z,94381.00
2023-01-18T08:24:48.730Z,94396.00
2023-01-18T08:27:17.617Z,94401.00
2023-01-18T08:29:47.730Z,94413.00
2023-01-18T08:32:16.483Z,94411.00
2023-01-18T08:34:44.321Z,94405.00
2023-01-18T08:37:12.007Z,94413.00
2023-01-18T08:39:39.172Z,94422.00
2023-01-18T08:42:06.160Z,94433.00
2023-01-18T08:44:34.027Z,94438.00
2023-01-18T08:47:00.971Z,94439.00
2023-01-18T08:49:28.887Z,94445.00
2023-01-18T08:51:57.781Z,94451.00
2023-01-18T08:54:26.734Z,94451.00
2023-01-18T08:56:54.654Z,94457.00
2023-01-18T08:59:23.680Z,94456.00
2023-01-18T09:01:52.536Z,94462.00
2023-01-18T09:04:19.340Z,94470.00
2023-01-18T09:06:47.078Z,94470.00
2023-01-18T09:09:14.187Z,94464.00
2023-01-18T09:11:41.081Z,94467.00
2023-01-18T09:14:07.863Z,94478.00
2023-01-18T09:16:34.671Z,94480.00
2023-01-18T09:19:01.954Z,94483.00
2023-01-18T09:21:29.855Z,94484.00
2023-01-18T09:23:57.144Z,94481.00
2023-01-18T09:26:24.704Z,94487.00
2023-01-18T09:28:53.439Z,94485.00
2023-01-18T09:31:24.387Z,94474.00
2023-01-18T09:33:53.989Z,94481.00
2023-01-18T09:36:26.753Z,94493.00
2023-01-18T09:38:56.330Z,94491.00
2023-01-18T09:41:33.275Z,94489.00
2023-01-18T09:44:14.131Z,94506.00
2023-01-18T09:46:44.077Z,94504.00
2023-01-18T09:49:42.962Z,94504.00
2023-01-18T09:52:45.147Z,94514.00
2023-01-18T09:55:42.832Z,94514.00
2023-01-18T09:58:30.685Z,94512.00
2023-01-18T10:01:09.730Z,94521.00
2023-01-18T10:03:56.169Z,94525.00
2023-01-18T10:06:34.416Z,94514.00
2023-01-18T10:09:07.356Z,94533.00
2023-01-18T10:11:38.251Z,94522.00
2023-01-18T10:14:26.171Z,94528.00
2023-01-18T10:17:00.072Z,94526.00
2023-01-18T10:19:32.119Z,94526.00
2023-01-18T10:22:19.411Z,94538.00
2023-01-18T10:24:57.487Z,94530.00
2023-01-18T10:27:40.500Z,94528.00
2023-01-18T10:30:39.419Z,94539.00
2023-01-18T10:33:40.883Z,94541.00
2023-01-18T10:36:17.440Z,94545.00
2023-01-18T10:38:45.550Z,94542.00
2023-01-18T10:41:28.304Z,94554.00
2023-01-18T10:43:57.621Z,94549.00
2023-01-18T10:46:26.227Z,94562.00
2023-01-18T10:48:57.531Z,94552.00
2023-01-18T10:51:31.297Z,94554.00
2023-01-18T10:53:58.410Z,94565.00
2023-01-18T10:56:28.851Z,94570.00
2023-01-18T10:59:02.438Z,94570.00
2023-01-18T11:01:36.105Z,94573.00
2023-01-18T11:04:08.134Z,94585.00
2023-01-18T11:07:03.420Z,94581.00
2023-01-18T11:09:51.730Z,94577.00
2023-01-18T11:12:34.326Z,94581.00
2023-01-18T11:15:14.169Z,94597.00
2023-01-18T11:18:00.387Z,94591.00
2023-01-18T11:20:50.030Z,94595.00
2023-01-18T11:23:26.152Z,94603.00
2023-01-18T11:26:12.985Z,94606.00
2023-01-18T11:29:05.369Z,94586.00
2023-01-18T11:31:47.106Z,94604.00
2023-01-18T11:34:32.126Z,94606.00
2023-01-18T11:37:01.449Z,94606.00
2023-01-18T11:39:37.290Z,94606.00
2023-01-18T11:42:30.283Z,94596.00
2023-01-18T11:45:24.508Z,94592.00
2023-01-18T11:48:02.365Z,94608.00
2023-01-18T11:50:44.944Z,94607.00
2023-01-18T11:53:36.007Z,94609.00
2023-01-18T11:56:51.291Z,94615.00
2023-01-18T11:59:42.471Z,94613.00
2023-01-18T12:02:45.448Z,94616.00
2023-01-18T12:05:45.810Z,94632.00
2023-01-18T12:08:49.726Z,94625.00
2023-01-18T12:12:17.889Z,94632.00
2023-01-18T12:15:20.792Z,94629.00
2023-01-18T12:18:30.976Z,94651.00
2023-01-18T12:21:38.329Z,94643.00
2023-01-18T12:24:38.257Z,94652.00
2023-01-18T12:27:34.110Z,94659.00
2023-01-18T12:30:33.255Z,94660.00
2023-01-18T12:33:42.566Z,94661.00
2023-01-18T12:36:52.285Z,94672.00
2023-01-18T12:39:36.418Z,94683.00
2023-01-18T12:42:16.020Z,94670.00
2023-01-18T12:45:15.424Z,94681.00
2023-01-18T12:48:12.370Z,94680.00
2023-01-18T12:50:42.538Z,94693.00
2023-01-18T12:53:45.993Z,94701.00
2023-01-18T12:56:28.390Z,94690.00
2023-01-18T12:59:06.109Z,94695.00
2023-01-18T13:01:42.301Z,94706.00
2023-01-18T13:05:43.918Z,94701.00
2023-01-18T13:08:23.666Z,94712.00
2023-01-18T13:10:51.936Z,94717.00
2023-01-18T13:13:25.969Z,94725.00
2023-01-18T13:16:56.725Z,94727.00
2023-01-18T13:27:18.521Z,94747.00
2023-01-18T13:27:41.433Z,94746.00
2023-01-18T13:30:44.735Z,94766.00
2023-01-18T13:34:10.044Z,94760.00
2023-01-18T13:37:53.395Z,94773.00
2023-01-18T13:40:24.813Z,94779.00
2023-01-18T13:42:52.463Z,94769.00
2023-01-18T13:45:26.361Z,94770.00
2023-01-18T13:47:58.635Z,94771.00
2023-01-18T13:50:28.552Z,94792.00
2023-01-18T13:53:13.266Z,94798.00
2023-01-18T13:56:29.426Z,94799.00
2023-01-18T13:59:19.546Z,94804.00
2023-01-18T14:01:48.907Z,94817.00
2023-01-18T14:04:32.915Z,94821.00
2023-01-18T14:07:04.230Z,94816.00
2023-01-18T14:09:44.935Z,94825.00
2023-01-18T14:12:13.106Z,94832.00
2023-01-18T14:19:34.374Z,94849.00
2023-01-18T14:23:45.447Z,94837.00
2023-01-18T14:33:45.688Z,94873.00
2023-01-18T14:36:37.536Z,94869.00
2023-01-18T14:39:41.445Z,94883.00
2023-01-18T14:42:38.201Z,94888.00
2023-01-18T14:45:06.267Z,94897.00
2023-01-18T14:48:11.195Z,94883.00
2023-01-18T14:50:58.953Z,94887.00
2023-01-18T14:57:24.677Z,94919.00
2023-01-18T15:00:04.516Z,94921.00
2023-01-18T15:02:38.654Z,94926.00
2023-01-18T15:05:27.900Z,94928.00
2023-01-18T15:07:59.621Z,94938.00
2023-01-18T15:10:26.980Z,94940.00
2023-01-18T15:12:58.872Z,94946.00
2023-01-18T15:15:42.461Z,94960.00
2023-01-18T15:18:22.268Z,94969.00
2023-01-18T15:21:06.242Z,94960.00
2023-01-18T15:23:36.437Z,94963.00
2023-01-18T15:26:03.863Z,94984.00
2023-01-18T15:28:34.701Z,94987.00
2023-01-18T15:31:16.146Z,94993.00
2023-01-18T15:33:44.799Z,94987.00
2023-01-18T15:36:11.771Z,94988.00
2023-01-18T15:38:39.775Z,94998.00
2023-01-18T15:41:11.589Z,94992.00
2023-01-18T15:43:43.940Z,95017.00
2023-01-18T15:46:18.484Z,95018.00
2023-01-18T15:48:53.022Z,95019.00
2023-01-18T15:51:22.494Z,95020.00
2023-01-18T15:53:56.513Z,95034.00
2023-01-18T15:56:31.148Z,95040.00
2023-01-18T15:59:01.071Z,95047.00
2023-01-18T16:01:34.718Z,95037.00
2023-01-18T16:04:23.912Z,95062.00
2023-01-18T16:06:50.727Z,95053.00
2023-01-18T16:09:21.498Z,95063.00
2023-01-18T16:11:54.565Z,95052.00
2023-01-18T16:14:27.820Z,95077.00
2023-01-18T16:17:22.971Z,95064.00
2023-01-18T16:19:57.142Z,95070.00
2023-01-18T16:22:27.330Z,95084.00
2023-01-18T16:25:02.155Z,95078.00
2023-01-18T16:27:31.646Z,95086.00
2023-01-18T16:30:19.467Z,95085.00
2023-01-18T16:32:49.985Z,95083.00
2023-01-18T16:35:24.826Z,95104.00
2023-01-18T16:37:52.787Z,95104.00
2023-01-18T16:40:23.193Z,95110.00
2023-01-18T16:43:26.645Z,95103.00
2023-01-18T16:45:56.548Z,95103.00
2023-01-18T16:48:27.485Z,95119.00
2023-01-18T16:51:01.086Z,95128.00
2023-01-18T16:53:28.924Z,95127.00
2023-01-18T16:55:56.624Z,95125.00
2023-01-18T16:58:24.097Z,95138.00
2023-01-18T17:00:58.754Z,95142.00
2023-01-18T17:03:28.008Z,95142.00
2023-01-18T17:05:55.815Z,95139.00
2023-01-18T17:08:22.865Z,95146.00
2023-01-18T17:10:52.774Z,95149.00
2023-01-18T17:13:19.592Z,95148.00
2023-01-18T17:15:47.604Z,95145.00
2023-01-18T17:18:18.396Z,95155.00
2023-01-18T17:20:45.256Z,95158.00
2023-01-18T17:23:12.623Z,95164.00
2023-01-18T17:25:42.166Z,95156.00
2023-01-18T17:28:17.937Z,95175.00
2023-01-18T17:30:49.737Z,95173.00
2023-01-18T17:33:23.904Z,95184.00
2023-01-18T17:35:55.164Z,95183.00
2023-01-18T17:38:27.038Z,95177.00
2023-01-18T17:40:57.425Z,95181.00
2023-01-18T17:43:39.821Z,95184.00
2023-01-18T17:46:07.651Z,95180.00
2023-01-18T17:48:34.728Z,95206.00
2023-01-18T17:51:06.353Z,95201.00
2023-01-18T17:53:33.997Z,95204.00
2023-01-18T17:56:01.330Z,95215.00
2023-01-18T17:58:28.225Z,95216.00
2023-01-18T18:00:56.118Z,95220.00
2023-01-18T18:03:24.012Z,95226.00
2023-01-18T18:05:58.308Z,95235.00
2023-01-18T18:08:26.855Z,95248.00
2023-01-18T18:10:55.840Z,95243.00
2023-01-18T18:13:24.728Z,95261.00
2023-01-18T18:15:52.922Z,95255.00
2023-01-18T18:18:23.562Z,95263.00
2023-01-18T18:21:01.598Z,95267.00
2023-01-18T18:23:30.549Z,95275.00
2023-01-18T18:25:59.349Z,95278.00
2023-01-18T18:28:29.544Z,95289.00
2023-01-18T18:30:59.231Z,95294.00
2023-01-18T18:33:28.451Z,95298.00
2023-01-18T18:35:57.022Z,95299.00
2023-01-18T18:38:27.389Z,95318.00
2023-01-18T18:40:57.577Z,95314.00
2023-01-18T18:43:24.501Z,95323.00
2023-01-18T18:45:51.721Z,95323.00
2023-01-18T18:48:18.654Z,95321.00
2023-01-18T18:50:47.196Z,95333.00
2023-01-18T18:53:15.497Z,95339.00
2023-01-18T18:55:43.082Z,95351.00
2023-01-18T18:58:11.304Z,95351.00
2023-01-18T19:00:39.231Z,95361.00
2023-01-18T19:03:08.698Z,95366.00
2023-01-18T19:05:36.013Z,95372.00
2023-01-18T19:08:03.986Z,95373.00
2023-01-18T19:10:31.922Z,95374.00
2023-01-18T19:13:02.574Z,95369.00
2023-01-18T19:15:30.675Z,95389.00
2023-01-18T19:17:58.883Z,95390.00
2023-01-18T19:20:27.637Z,95393.00
2023-01-18T19:22:56.477Z,95392.00
2023-01-18T19:25:25.439Z,95400.00
2023-01-18T19:27:52.878Z,95399.00
2023-01-18T19:30:20.271Z,95404.00
2023-01-18T19:32:51.263Z,95412.00
2023-01-18T19:35:21.004Z,95407.00
2023-01-18T19:37:50.026Z,95426.00
2023-01-18T19:40:18.340Z,95424.00
2023-01-18T19:42:47.008Z,95417.00
2023-01-18T19:45:26.777Z,95427.00
2023-01-18T19:47:54.959Z,95421.00
2023-01-18T19:50:22.339Z,95429.00
2023-01-18T19:52:50.566Z,95427.00
2023-01-18T19:55:18.489Z,95422.00
2023-01-18T19:57:47.405Z,95417.00
2023-01-18T20:00:17.291Z,95424.00
2023-01-18T20:02:45.379Z,95425.00
2023-01-18T20:05:14.162Z,95440.00
2023-01-18T20:07:43.066Z,95438.00
2023-01-18T20:10:10.732Z,95429.00
2023-01-18T20:12:38.365Z,95445.00
2023-01-18T20:15:08.792Z,95449.00
2023-01-18T20:17:38.759Z,95441.00
2023-01-18T20:20:06.408Z,95463.00
2023-01-18T20:22:35.575Z,95450.00
2023-01-18T20:25:02.415Z,95470.00
2023-01-18T20:27:29.433Z,95458.00
2023-01-18T20:29:58.386Z,95468.00
2023-01-18T20:32:26.317Z,95465.00
2023-01-18T20:34:53.517Z,95473.00
2023-01-18T20:37:21.148Z,95463.00
2023-01-18T20:39:51.028Z,95468.00
2023-01-18T20:42:18.713Z,95468.00
2023-01-18T20:44:49.808Z,95472.00
2023-01-18T20:47:17.799Z,95474.00
2023-01-18T20:49:45.751Z,95471.00
2023-01-18T20:52:12.867Z,95480.00
2023-01-18T20:54:39.953Z,95481.00
2023-01-18T20:57:07.103Z,95491.00
2023-01-18T20:59:35.214Z,95499.00
2023-01-18T21:02:03.543Z,95497.00
2023-01-18T21:04:31.294Z,95504.00
2023-01-18T21:06:58.859Z,95495.00
2023-01-18T21:09:25.991Z,95511.00
2023-01-18T21:11:54.773Z,95511.00
2023-01-18T21:14:21.792Z,95517.00
2023-01-18T21:16:49.907Z,95528.00
2023-01-18T21:19:17.766Z,95532.00
2023-01-18T21:21:46.606Z,95527.00
2023-01-18T21:24:13.611Z,95536.00
2023-01-18T21:26:40.839Z,95541.00
2023-01-18T21:29:09.444Z,95546.00
2023-01-18T21:31:36.389Z,95551.00
2023-01-18T21:34:04.285Z,95559.00
2023-01-18T21:36:31.166Z,95563.00
2023-01-18T21:38:58.891Z,95570.00
2023-01-18T21:41:44.771Z,95565.00
2023-01-18T21:44:31.911Z,95584.00
2023-01-18T21:46:59.040Z,95578.00
2023-01-18T21:50:15.388Z,95586.00
2023-01-18T21:52:50.026Z,95589.00
2023-01-18T21:55:18.430Z,95593.00
2023-01-18T21:57:45.378Z,95591.00
2023-01-18T22:00:16.351Z,95596.00
2023-01-18T22:02:45.269Z,95597.00
2023-01-18T22:05:12.280Z,95605.00
2023-01-18T22:07:39.573Z,95606.00
2023-01-18T22:10:07.633Z,95595.00
2023-01-18T22:12:36.209Z,95591.00
2023-01-18T22:15:04.995Z,95601.00
2023-01-18T22:17:34.245Z,95601.00
2023-01-18T22:20:02.544Z,95605.00
2023-01-18T22:22:29.710Z,95592.00
2023-01-18T22:24:57.649Z,95599.00
2023-01-18T22:27:25.136Z,95600.00
2023-01-18T22:29:52.494Z,95604.00
2023-01-18T22:32:19.309Z,95611.00
2023-01-18T22:34:47.262Z,95608.00
2023-01-18T22:37:14.079Z,95612.00
2023-01-18T22:39:40.866Z,95601.00
2023-01-18T22:42:07.698Z,95599.00
2023-01-18T22:44:34.478Z,95613.00
2023-01-18T22:47:02.945Z,95619.00
2023-01-18T22:49:29.713Z,95617.00
2023-01-18T22:51:56.778Z,95625.00
2023-01-18T22:54:24.707Z,95625.00
2023-01-18T22:56:52.491Z,95627.00
2023-01-18T22:59:20.540Z,95626.00
2023-01-18T23:01:47.348Z,95628.00
2023-01-18T23:04:14.384Z,95635.00
2023-01-18T23:06:42.681Z,95639.00
2023-01-18T23:09:10.349Z,95632.00
2023-01-18T23:11:39.109Z,95641.00
2023-01-18T23:14:26.044Z,95643.00
2023-01-18T23:17:12.890Z,95651.00
2023-01-18T23:19:39.776Z,95659.00
2023-01-18T23:22:09.175Z,95653.00
2023-01-18T23:24:37.746Z,95664.00
2023-01-18T23:27:10.587Z,95663.00
2023-01-18T23:29:39.627Z,95666.00
2023-01-18T23:32:07.895Z,95674.00
2023-01-18T23:34:36.405Z,95676.00
2023-01-18T23:37:03.881Z,95677.00
2023-01-18T23:39:49.660Z,95672.00
2023-01-18T23:42:36.080Z,95682.00
2023-01-18T23:45:23.051Z,95690.00
2023-01-18T23:48:08.927Z,95685.00
2023-01-18T23:50:54.062Z,95697.00
2023-01-18T23:53:39.212Z,95701.00
2023-01-18T23:56:06.493Z,95695.00
2023-01-18T23:58:33.338Z,95705.00
